sensor_id;sensor_type;location;lat;lon;timestamp;temperature;humidity
41437;DHT22;27178;49.460;10.850;2023-08-06T00:01:09;21.50;72.80
41437;DHT22;27178;49.460;10.850;2023-08-06T00:03:38;21.50;72.60
41437;DHT22;27178;49.460;10.850;2023-08-06T00:06:07;21.50;72.60
41437;DHT22;27178;49.460;10.850;2023-08-06T00:08:35;21.50;72.70
41437;DHT22;27178;49.460;10.850;2023-08-06T00:11:03;21.40;72.60
41437;DHT22;27178;49.460;10.850;2023-08-06T00:13:32;21.40;72.70
41437;DHT22;27178;49.460;10.850;2023-08-06T00:16:09;21.40;72.80
41437;DHT22;27178;49.460;10.850;2023-08-06T00:18:38;21.40;73.00
41437;DHT22;27178;49.460;10.850;2023-08-06T00:21:06;21.40;72.80
41437;DHT22;27178;49.460;10.850;2023-08-06T00:23:35;21.40;72.80
41437;DHT22;27178;49.460;10.850;2023-08-06T00:26:03;21.40;73.00
41437;DHT22;27178;49.460;10.850;2023-08-06T00:28:33;21.40;73.20
41437;DHT22;27178;49.460;10.850;2023-08-06T00:31:02;21.40;73.40
41437;DHT22;27178;49.460;10.850;2023-08-06T00:33:30;21.40;73.40
41437;DHT22;27178;49.460;10.850;2023-08-06T00:35:58;21.40;73.40
41437;DHT22;27178;49.460;10.850;2023-08-06T00:38:28;21.40;73.30
41437;DHT22;27178;49.460;10.850;2023-08-06T00:40:57;21.40;73.30
41437;DHT22;27178;49.460;10.850;2023-08-06T00:43:25;21.40;73.20
41437;DHT22;27178;49.460;10.850;2023-08-06T00:45:56;21.30;73.20
41437;DHT22;27178;49.460;10.850;2023-08-06T00:48:24;21.30;73.40
41437;DHT22;27178;49.460;10.850;2023-08-06T00:50:53;21.30;73.20
41437;DHT22;27178;49.460;10.850;2023-08-06T00:53:22;21.20;73.10
41437;DHT22;27178;49.460;10.850;2023-08-06T00:55:51;21.20;73.20
41437;DHT22;27178;49.460;10.850;2023-08-06T00:58:19;21.10;73.10
41437;DHT22;27178;49.460;10.850;2023-08-06T01:00:48;21.10;74.10
41437;DHT22;27178;49.460;10.850;2023-08-06T01:03:18;21.10;73.00
41437;DHT22;27178;49.460;10.850;2023-08-06T01:05:47;21.10;72.90
41437;DHT22;27178;49.460;10.850;2023-08-06T01:08:23;21.00;72.80
41437;DHT22;27178;49.460;10.850;2023-08-06T01:11:04;21.00;73.30
41437;DHT22;27178;49.460;10.850;2023-08-06T01:13:41;21.00;73.20
41437;DHT22;27178;49.460;10.850;2023-08-06T01:16:11;20.90;73.50
41437;DHT22;27178;49.460;10.850;2023-08-06T01:18:41;20.90;73.30
41437;DHT22;27178;49.460;10.850;2023-08-06T01:21:15;20.90;73.50
41437;DHT22;27178;49.460;10.850;2023-08-06T01:23:44;20.90;73.80
41437;DHT22;27178;49.460;10.850;2023-08-06T01:26:15;20.90;73.80
41437;DHT22;27178;49.460;10.850;2023-08-06T01:28:52;20.80;73.30
41437;DHT22;27178;49.460;10.850;2023-08-06T01:31:26;20.80;73.80
41437;DHT22;27178;49.460;10.850;2023-08-06T01:33:56;20.80;73.80
41437;DHT22;27178;49.460;10.850;2023-08-06T01:36:28;20.80;73.80
41437;DHT22;27178;49.460;10.850;2023-08-06T01:38:56;20.80;73.80
41437;DHT22;27178;49.460;10.850;2023-08-06T01:41:25;20.80;73.60
41437;DHT22;27178;49.460;10.850;2023-08-06T01:43:54;20.80;73.50
41437;DHT22;27178;49.460;10.850;2023-08-06T01:46:22;20.80;73.30
41437;DHT22;27178;49.460;10.850;2023-08-06T01:48:50;20.80;73.40
41437;DHT22;27178;49.460;10.850;2023-08-06T01:51:19;20.70;73.60
41437;DHT22;27178;49.460;10.850;2023-08-06T01:53:49;20.70;73.70
41437;DHT22;27178;49.460;10.850;2023-08-06T01:56:17;20.70;73.60
41437;DHT22;27178;49.460;10.850;2023-08-06T01:58:45;20.70;73.50
41437;DHT22;27178;49.460;10.850;2023-08-06T02:01:15;20.70;73.50
41437;DHT22;27178;49.460;10.850;2023-08-06T02:03:43;20.60;73.60
41437;DHT22;27178;49.460;10.850;2023-08-06T02:06:11;20.60;73.80
41437;DHT22;27178;49.460;10.850;2023-08-06T02:08:40;20.60;73.70
41437;DHT22;27178;49.460;10.850;2023-08-06T02:11:10;20.60;73.80
41437;DHT22;27178;49.460;10.850;2023-08-06T02:13:38;20.50;73.80
41437;DHT22;27178;49.460;10.850;2023-08-06T02:16:07;20.50;73.90
41437;DHT22;27178;49.460;10.850;2023-08-06T02:18:36;20.50;73.50
41437;DHT22;27178;49.460;10.850;2023-08-06T02:21:04;20.50;73.30
41437;DHT22;27178;49.460;10.850;2023-08-06T02:23:33;20.40;74.10
41437;DHT22;27178;49.460;10.850;2023-08-06T02:26:04;20.40;74.10
41437;DHT22;27178;49.460;10.850;2023-08-06T02:28:33;20.40;74.80
41437;DHT22;27178;49.460;10.850;2023-08-06T02:31:02;20.40;74.60
41437;DHT22;27178;49.460;10.850;2023-08-06T02:33:30;20.40;74.80
41437;DHT22;27178;49.460;10.850;2023-08-06T02:35:59;20.40;74.80
41437;DHT22;27178;49.460;10.850;2023-08-06T02:38:29;20.40;75.20
41437;DHT22;27178;49.460;10.850;2023-08-06T02:40:57;20.40;75.10
41437;DHT22;27178;49.460;10.850;2023-08-06T02:43:26;20.40;74.90
41437;DHT22;27178;49.460;10.850;2023-08-06T02:45:58;20.40;74.40
41437;DHT22;27178;49.460;10.850;2023-08-06T02:48:27;20.40;74.70
41437;DHT22;27178;49.460;10.850;2023-08-06T02:50:57;20.40;74.40
41437;DHT22;27178;49.460;10.850;2023-08-06T02:53:27;20.40;74.60
41437;DHT22;27178;49.460;10.850;2023-08-06T02:55:56;20.40;74.60
41437;DHT22;27178;49.460;10.850;2023-08-06T02:58:24;20.40;74.80
41437;DHT22;27178;49.460;10.850;2023-08-06T03:01:02;20.30;74.70
41437;DHT22;27178;49.460;10.850;2023-08-06T03:03:31;20.30;75.10
41437;DHT22;27178;49.460;10.850;2023-08-06T03:06:00;20.30;75.00
41437;DHT22;27178;49.460;10.850;2023-08-06T03:08:28;20.30;75.00
41437;DHT22;27178;49.460;10.850;2023-08-06T03:10:56;20.30;74.80
41437;DHT22;27178;49.460;10.850;2023-08-06T03:13:25;20.30;75.00
41437;DHT22;27178;49.460;10.850;2023-08-06T03:15:56;20.20;74.80
41437;DHT22;27178;49.460;10.850;2023-08-06T03:18:26;20.20;74.80
41437;DHT22;27178;49.460;10.850;2023-08-06T03:20:54;20.20;74.90
41437;DHT22;27178;49.460;10.850;2023-08-06T03:23:24;20.20;75.00
41437;DHT22;27178;49.460;10.850;2023-08-06T03:25:52;20.20;75.30
41437;DHT22;27178;49.460;10.850;2023-08-06T03:28:20;20.20;75.20
41437;DHT22;27178;49.460;10.850;2023-08-06T03:30:59;20.10;75.30
41437;DHT22;27178;49.460;10.850;2023-08-06T03:33:29;20.10;75.70
41437;DHT22;27178;49.460;10.850;2023-08-06T03:35:58;20.00;75.20
41437;DHT22;27178;49.460;10.850;2023-08-06T03:38:26;20.00;75.20
41437;DHT22;27178;49.460;10.850;2023-08-06T03:40:55;20.00;75.40
41437;DHT22;27178;49.460;10.850;2023-08-06T03:43:23;19.90;75.40
41437;DHT22;27178;49.460;10.850;2023-08-06T03:45:52;19.90;75.20
41437;DHT22;27178;49.460;10.850;2023-08-06T03:48:20;19.90;75.50
41437;DHT22;27178;49.460;10.850;2023-08-06T03:50:50;19.80;75.50
41437;DHT22;27178;49.460;10.850;2023-08-06T03:53:18;19.80;75.50
41437;DHT22;27178;49.460;10.850;2023-08-06T03:55:47;19.80;76.40
41437;DHT22;27178;49.460;10.850;2023-08-06T03:58:15;19.80;75.60
41437;DHT22;27178;49.460;10.850;2023-08-06T04:00:43;19.80;75.70
41437;DHT22;27178;49.460;10.850;2023-08-06T04:03:11;19.80;75.70
41437;DHT22;27178;49.460;10.850;2023-08-06T04:05:40;19.80;75.80
41437;DHT22;27178;49.460;10.850;2023-08-06T04:08:10;19.70;75.80
41437;DHT22;27178;49.460;10.850;2023-08-06T04:10:39;19.70;75.90
41437;DHT22;27178;49.460;10.850;2023-08-06T04:13:07;19.70;75.90
41437;DHT22;27178;49.460;10.850;2023-08-06T04:15:35;19.70;75.80
41437;DHT22;27178;49.460;10.850;2023-08-06T04:18:08;19.70;75.70
41437;DHT22;27178;49.460;10.850;2023-08-06T04:20:42;19.70;75.70
41437;DHT22;27178;49.460;10.850;2023-08-06T04:23:12;19.70;75.50
41437;DHT22;27178;49.460;10.850;2023-08-06T04:25:41;19.70;75.60
41437;DHT22;27178;49.460;10.850;2023-08-06T04:28:09;19.70;75.70
41437;DHT22;27178;49.460;10.850;2023-08-06T04:30:38;19.60;75.50
41437;DHT22;27178;49.460;10.850;2023-08-06T04:33:06;19.60;75.10
41437;DHT22;27178;49.460;10.850;2023-08-06T04:35:35;20.20;75.80
41437;DHT22;27178;49.460;10.850;2023-08-06T04:38:03;19.60;75.50
41437;DHT22;27178;49.460;10.850;2023-08-06T04:40:34;19.50;75.70
41437;DHT22;27178;49.460;10.850;2023-08-06T04:43:03;19.50;75.90
41437;DHT22;27178;49.460;10.850;2023-08-06T04:45:31;19.50;75.80
41437;DHT22;27178;49.460;10.850;2023-08-06T04:47:59;19.50;76.10
41437;DHT22;27178;49.460;10.850;2023-08-06T04:50:28;19.50;76.00
41437;DHT22;27178;49.460;10.850;2023-08-06T04:52:57;19.50;76.10
41437;DHT22;27178;49.460;10.850;2023-08-06T04:55:25;19.40;75.90
41437;DHT22;27178;49.460;10.850;2023-08-06T04:57:55;19.40;76.10
41437;DHT22;27178;49.460;10.850;2023-08-06T05:00:24;19.40;76.40
41437;DHT22;27178;49.460;10.850;2023-08-06T05:02:52;19.40;76.30
41437;DHT22;27178;49.460;10.850;2023-08-06T05:05:20;19.50;76.60
41437;DHT22;27178;49.460;10.850;2023-08-06T05:07:50;19.40;76.40
41437;DHT22;27178;49.460;10.850;2023-08-06T05:10:18;19.40;76.60
41437;DHT22;27178;49.460;10.850;2023-08-06T05:12:46;19.40;76.80
41437;DHT22;27178;49.460;10.850;2023-08-06T05:15:16;19.40;76.60
41437;DHT22;27178;49.460;10.850;2023-08-06T05:17:45;19.40;76.80
41437;DHT22;27178;49.460;10.850;2023-08-06T05:20:13;19.40;76.80
41437;DHT22;27178;49.460;10.850;2023-08-06T05:22:41;19.40;77.00
41437;DHT22;27178;49.460;10.850;2023-08-06T05:25:12;19.50;76.90
41437;DHT22;27178;49.460;10.850;2023-08-06T05:27:41;19.50;77.10
41437;DHT22;27178;49.460;10.850;2023-08-06T05:30:10;19.50;77.10
41437;DHT22;27178;49.460;10.850;2023-08-06T05:32:40;19.50;77.00
41437;DHT22;27178;49.460;10.850;2023-08-06T05:35:09;19.50;76.80
41437;DHT22;27178;49.460;10.850;2023-08-06T05:37:37;19.50;76.80
41437;DHT22;27178;49.460;10.850;2023-08-06T05:40:06;19.50;76.90
41437;DHT22;27178;49.460;10.850;2023-08-06T05:42:35;19.50;77.00
41437;DHT22;27178;49.460;10.850;2023-08-06T05:45:05;19.50;77.00
41437;DHT22;27178;49.460;10.850;2023-08-06T05:47:33;19.50;77.40
41437;DHT22;27178;49.460;10.850;2023-08-06T05:50:03;19.50;77.30
41437;DHT22;27178;49.460;10.850;2023-08-06T05:52:32;19.50;77.80
41437;DHT22;27178;49.460;10.850;2023-08-06T05:55:00;19.50;77.80
41437;DHT22;27178;49.460;10.850;2023-08-06T05:57:29;19.60;78.30
41437;DHT22;27178;49.460;10.850;2023-08-06T05:59:57;19.60;78.10
41437;DHT22;27178;49.460;10.850;2023-08-06T06:02:25;19.60;78.20
41437;DHT22;27178;49.460;10.850;2023-08-06T06:04:54;19.60;78.30
41437;DHT22;27178;49.460;10.850;2023-08-06T06:07:24;19.70;78.30
41437;DHT22;27178;49.460;10.850;2023-08-06T06:09:52;19.70;78.30
41437;DHT22;27178;49.460;10.850;2023-08-06T06:12:21;19.70;78.30
41437;DHT22;27178;49.460;10.850;2023-08-06T06:14:49;19.70;78.20
41437;DHT22;27178;49.460;10.850;2023-08-06T06:17:18;19.70;78.20
41437;DHT22;27178;49.460;10.850;2023-08-06T06:19:47;19.80;77.90
41437;DHT22;27178;49.460;10.850;2023-08-06T06:22:15;19.80;77.90
41437;DHT22;27178;49.460;10.850;2023-08-06T06:24:44;19.80;77.90
41437;DHT22;27178;49.460;10.850;2023-08-06T06:27:13;19.80;78.10
41437;DHT22;27178;49.460;10.850;2023-08-06T06:29:41;19.80;78.30
41437;DHT22;27178;49.460;10.850;2023-08-06T06:32:09;19.90;78.40
41437;DHT22;27178;49.460;10.850;2023-08-06T06:34:38;19.90;78.20
41437;DHT22;27178;49.460;10.850;2023-08-06T06:37:06;19.90;78.20
41437;DHT22;27178;49.460;10.850;2023-08-06T06:39:35;19.80;78.10
41437;DHT22;27178;49.460;10.850;2023-08-06T06:42:05;20.00;78.50
41437;DHT22;27178;49.460;10.850;2023-08-06T06:44:33;20.00;78.30
41437;DHT22;27178;49.460;10.850;2023-08-06T06:47:02;20.00;79.10
41437;DHT22;27178;49.460;10.850;2023-08-06T06:49:31;20.00;78.40
41437;DHT22;27178;49.460;10.850;2023-08-06T06:51:59;20.00;78.50
41437;DHT22;27178;49.460;10.850;2023-08-06T06:54:27;20.10;78.40
41437;DHT22;27178;49.460;10.850;2023-08-06T06:56:56;20.10;78.30
41437;DHT22;27178;49.460;10.850;2023-08-06T06:59:26;20.00;78.30
41437;DHT22;27178;49.460;10.850;2023-08-06T07:01:54;20.10;78.30
41437;DHT22;27178;49.460;10.850;2023-08-06T07:04:22;20.10;78.50
41437;DHT22;27178;49.460;10.850;2023-08-06T07:06:51;20.10;78.50
41437;DHT22;27178;49.460;10.850;2023-08-06T07:09:19;20.10;78.70
41437;DHT22;27178;49.460;10.850;2023-08-06T07:11:48;20.10;78.80
41437;DHT22;27178;49.460;10.850;2023-08-06T07:14:17;20.20;79.80
41437;DHT22;27178;49.460;10.850;2023-08-06T07:16:46;20.20;78.70
41437;DHT22;27178;49.460;10.850;2023-08-06T07:19:15;20.20;78.80
41437;DHT22;27178;49.460;10.850;2023-08-06T07:21:43;20.20;78.80
41437;DHT22;27178;49.460;10.850;2023-08-06T07:24:11;20.30;79.00
41437;DHT22;27178;49.460;10.850;2023-08-06T07:26:39;20.30;79.00
41437;DHT22;27178;49.460;10.850;2023-08-06T07:29:08;20.30;78.80
41437;DHT22;27178;49.460;10.850;2023-08-06T07:31:36;20.40;78.80
41437;DHT22;27178;49.460;10.850;2023-08-06T07:34:06;20.40;78.70
41437;DHT22;27178;49.460;10.850;2023-08-06T07:36:34;20.40;78.70
41437;DHT22;27178;49.460;10.850;2023-08-06T07:39:03;20.40;78.30
41437;DHT22;27178;49.460;10.850;2023-08-06T07:41:33;20.40;78.10
41437;DHT22;27178;49.460;10.850;2023-08-06T07:44:01;20.40;78.20
41437;DHT22;27178;49.460;10.850;2023-08-06T07:46:30;20.40;78.30
41437;DHT22;27178;49.460;10.850;2023-08-06T07:48:59;20.40;78.10
41437;DHT22;27178;49.460;10.850;2023-08-06T07:51:29;20.40;78.00
41437;DHT22;27178;49.460;10.850;2023-08-06T07:53:57;20.50;78.00
41437;DHT22;27178;49.460;10.850;2023-08-06T07:56:26;20.50;77.90
41437;DHT22;27178;49.460;10.850;2023-08-06T07:58:54;20.50;77.60
41437;DHT22;27178;49.460;10.850;2023-08-06T08:01:22;20.50;77.50
41437;DHT22;27178;49.460;10.850;2023-08-06T08:03:57;20.50;77.50
41437;DHT22;27178;49.460;10.850;2023-08-06T08:06:25;20.50;77.50
41437;DHT22;27178;49.460;10.850;2023-08-06T08:08:55;20.50;77.50
41437;DHT22;27178;49.460;10.850;2023-08-06T08:11:24;20.60;77.00
41437;DHT22;27178;49.460;10.850;2023-08-06T08:13:52;20.60;76.40
41437;DHT22;27178;49.460;10.850;2023-08-06T08:16:20;20.60;76.10
41437;DHT22;27178;49.460;10.850;2023-08-06T08:18:49;20.60;75.70
41437;DHT22;27178;49.460;10.850;2023-08-06T08:21:17;20.60;75.60
41437;DHT22;27178;49.460;10.850;2023-08-06T08:23:46;20.70;75.60
41437;DHT22;27178;49.460;10.850;2023-08-06T08:26:16;20.70;75.20
41437;DHT22;27178;49.460;10.850;2023-08-06T08:28:44;20.70;74.40
41437;DHT22;27178;49.460;10.850;2023-08-06T08:31:13;20.70;74.30
41437;DHT22;27178;49.460;10.850;2023-08-06T08:33:42;20.70;74.00
41437;DHT22;27178;49.460;10.850;2023-08-06T08:36:11;20.70;73.80
41437;DHT22;27178;49.460;10.850;2023-08-06T08:38:39;20.70;73.60
41437;DHT22;27178;49.460;10.850;2023-08-06T08:41:10;20.60;73.70
41437;DHT22;27178;49.460;10.850;2023-08-06T08:43:40;20.60;74.10
41437;DHT22;27178;49.460;10.850;2023-08-06T08:46:11;20.60;74.40
41437;DHT22;27178;49.460;10.850;2023-08-06T08:48:40;20.60;74.40
41437;DHT22;27178;49.460;10.850;2023-08-06T08:51:09;20.60;74.30
41437;DHT22;27178;49.460;10.850;2023-08-06T08:53:39;20.60;74.60
41437;DHT22;27178;49.460;10.850;2023-08-06T08:56:11;20.60;74.00
41437;DHT22;27178;49.460;10.850;2023-08-06T08:58:42;20.60;74.10
41437;DHT22;27178;49.460;10.850;2023-08-06T09:01:10;20.60;74.10
41437;DHT22;27178;49.460;10.850;2023-08-06T09:03:39;20.60;73.80
41437;DHT22;27178;49.460;10.850;2023-08-06T09:06:08;20.60;74.10
41437;DHT22;27178;49.460;10.850;2023-08-06T09:08:41;20.70;74.20
41437;DHT22;27178;49.460;10.850;2023-08-06T09:11:11;20.70;74.40
41437;DHT22;27178;49.460;10.850;2023-08-06T09:13:40;20.80;74.20
41437;DHT22;27178;49.460;10.850;2023-08-06T09:16:10;20.80;74.00
41437;DHT22;27178;49.460;10.850;2023-08-06T09:18:39;20.80;73.90
41437;DHT22;27178;49.460;10.850;2023-08-06T09:21:13;20.90;74.20
41437;DHT22;27178;49.460;10.850;2023-08-06T09:23:42;20.90;73.30
41437;DHT22;27178;49.460;10.850;2023-08-06T09:26:11;21.00;74.30
41437;DHT22;27178;49.460;10.850;2023-08-06T09:28:42;21.00;73.40
41437;DHT22;27178;49.460;10.850;2023-08-06T09:31:12;21.00;73.10
41437;DHT22;27178;49.460;10.850;2023-08-06T09:33:41;21.00;73.40
41437;DHT22;27178;49.460;10.850;2023-08-06T09:36:11;21.00;73.20
41437;DHT22;27178;49.460;10.850;2023-08-06T09:38:41;21.00;73.20
41437;DHT22;27178;49.460;10.850;2023-08-06T09:41:09;21.00;73.40
41437;DHT22;27178;49.460;10.850;2023-08-06T09:43:41;21.00;73.30
41437;DHT22;27178;49.460;10.850;2023-08-06T09:46:14;21.00;73.60
41437;DHT22;27178;49.460;10.850;2023-08-06T09:48:47;21.10;73.70
41437;DHT22;27178;49.460;10.850;2023-08-06T09:51:16;21.10;73.50
41437;DHT22;27178;49.460;10.850;2023-08-06T09:53:47;21.10;73.00
41437;DHT22;27178;49.460;10.850;2023-08-06T09:56:17;21.10;73.10
41437;DHT22;27178;49.460;10.850;2023-08-06T09:58:47;21.20;73.10
41437;DHT22;27178;49.460;10.850;2023-08-06T10:01:19;21.10;72.60
41437;DHT22;27178;49.460;10.850;2023-08-06T10:03:47;21.20;72.60
41437;DHT22;27178;49.460;10.850;2023-08-06T10:06:18;21.20;72.50
41437;DHT22;27178;49.460;10.850;2023-08-06T10:08:46;21.20;72.20
41437;DHT22;27178;49.460;10.850;2023-08-06T10:11:17;21.20;72.10
41437;DHT22;27178;49.460;10.850;2023-08-06T10:13:46;21.30;71.70
41437;DHT22;27178;49.460;10.850;2023-08-06T10:16:15;21.30;71.80
41437;DHT22;27178;49.460;10.850;2023-08-06T10:18:47;21.30;71.90
41437;DHT22;27178;49.460;10.850;2023-08-06T10:21:16;21.40;71.90
41437;DHT22;27178;49.460;10.850;2023-08-06T10:23:54;21.40;71.50
41437;DHT22;27178;49.460;10.850;2023-08-06T10:26:25;21.50;71.50
41437;DHT22;27178;49.460;10.850;2023-08-06T10:28:55;21.50;71.50
41437;DHT22;27178;49.460;10.850;2023-08-06T10:31:58;21.60;71.30
41437;DHT22;27178;49.460;10.850;2023-08-06T10:34:53;21.60;70.80
41437;DHT22;27178;49.460;10.850;2023-08-06T10:37:21;21.70;70.40
41437;DHT22;27178;49.460;10.850;2023-08-06T10:39:50;21.70;69.70
41437;DHT22;27178;49.460;10.850;2023-08-06T10:42:20;21.70;69.50
41437;DHT22;27178;49.460;10.850;2023-08-06T10:45:11;21.60;69.20
41437;DHT22;27178;49.460;10.850;2023-08-06T10:47:39;21.70;69.30
41437;DHT22;27178;49.460;10.850;2023-08-06T10:50:14;21.70;69.90
41437;DHT22;27178;49.460;10.850;2023-08-06T10:52:43;21.70;69.90
41437;DHT22;27178;49.460;10.850;2023-08-06T10:55:12;21.80;69.90
41437;DHT22;27178;49.460;10.850;2023-08-06T10:57:41;21.70;69.30
41437;DHT22;27178;49.460;10.850;2023-08-06T11:00:10;21.80;69.10
41437;DHT22;27178;49.460;10.850;2023-08-06T11:02:43;21.80;68.80
41437;DHT22;27178;49.460;10.850;2023-08-06T11:05:14;21.90;68.70
41437;DHT22;27178;49.460;10.850;2023-08-06T11:07:42;21.90;68.20
41437;DHT22;27178;49.460;10.850;2023-08-06T11:10:12;21.90;68.00
41437;DHT22;27178;49.460;10.850;2023-08-06T11:12:41;21.90;68.00
41437;DHT22;27178;49.460;10.850;2023-08-06T11:15:10;21.90;68.00
41437;DHT22;27178;49.460;10.850;2023-08-06T11:17:40;21.90;68.30
41437;DHT22;27178;49.460;10.850;2023-08-06T11:20:09;21.90;68.60
41437;DHT22;27178;49.460;10.850;2023-08-06T11:22:40;21.90;68.50
41437;DHT22;27178;49.460;10.850;2023-08-06T11:25:08;22.00;68.40
41437;DHT22;27178;49.460;10.850;2023-08-06T11:27:37;22.10;68.30
41437;DHT22;27178;49.460;10.850;2023-08-06T11:30:06;22.10;68.40
41437;DHT22;27178;49.460;10.850;2023-08-06T11:32:44;22.10;68.70
41437;DHT22;27178;49.460;10.850;2023-08-06T11:35:15;22.20;68.40
41437;DHT22;27178;49.460;10.850;2023-08-06T11:37:46;22.30;69.30
41437;DHT22;27178;49.460;10.850;2023-08-06T11:40:15;22.40;68.90
41437;DHT22;27178;49.460;10.850;2023-08-06T11:42:43;22.50;69.20
41437;DHT22;27178;49.460;10.850;2023-08-06T11:45:11;22.60;68.60
41437;DHT22;27178;49.460;10.850;2023-08-06T11:47:40;22.70;68.00
41437;DHT22;27178;49.460;10.850;2023-08-06T11:50:22;22.80;67.30
41437;DHT22;27178;49.460;10.850;2023-08-06T11:52:56;22.30;66.70
41437;DHT22;27178;49.460;10.850;2023-08-06T11:55:25;22.80;67.20
41437;DHT22;27178;49.460;10.850;2023-08-06T11:57:55;22.80;67.20
41437;DHT22;27178;49.460;10.850;2023-08-06T12:00:25;22.70;67.30
41437;DHT22;27178;49.460;10.850;2023-08-06T12:02:54;22.60;67.80
41437;DHT22;27178;49.460;10.850;2023-08-06T12:05:23;22.60;68.30
41437;DHT22;27178;49.460;10.850;2023-08-06T12:07:54;22.50;68.80
41437;DHT22;27178;49.460;10.850;2023-08-06T12:10:25;22.50;70.00
41437;DHT22;27178;49.460;10.850;2023-08-06T12:12:54;22.50;69.50
41437;DHT22;27178;49.460;10.850;2023-08-06T12:15:23;22.50;69.50
41437;DHT22;27178;49.460;10.850;2023-08-06T12:17:51;22.50;69.70
41437;DHT22;27178;49.460;10.850;2023-08-06T12:20:20;22.60;69.50
41437;DHT22;27178;49.460;10.850;2023-08-06T12:22:48;22.80;69.20
41437;DHT22;27178;49.460;10.850;2023-08-06T12:25:18;22.80;68.70
41437;DHT22;27178;49.460;10.850;2023-08-06T12:27:46;23.00;68.80
41437;DHT22;27178;49.460;10.850;2023-08-06T12:30:15;23.10;68.60
41437;DHT22;27178;49.460;10.850;2023-08-06T12:32:43;23.30;67.90
41437;DHT22;27178;49.460;10.850;2023-08-06T12:35:12;23.40;66.80
41437;DHT22;27178;49.460;10.850;2023-08-06T12:37:41;23.40;66.10
41437;DHT22;27178;49.460;10.850;2023-08-06T12:40:10;23.50;66.40
41437;DHT22;27178;49.460;10.850;2023-08-06T12:42:43;23.50;66.80
41437;DHT22;27178;49.460;10.850;2023-08-06T12:45:11;23.60;65.90
41437;DHT22;27178;49.460;10.850;2023-08-06T12:47:40;23.60;65.20
41437;DHT22;27178;49.460;10.850;2023-08-06T12:50:09;23.70;64.80
41437;DHT22;27178;49.460;10.850;2023-08-06T12:52:37;23.70;64.80
41437;DHT22;27178;49.460;10.850;2023-08-06T12:55:06;23.80;64.70
41437;DHT22;27178;49.460;10.850;2023-08-06T12:57:35;23.80;64.30
41437;DHT22;27178;49.460;10.850;2023-08-06T13:00:25;23.90;65.20
41437;DHT22;27178;49.460;10.850;2023-08-06T13:02:54;23.80;64.00
41437;DHT22;27178;49.460;10.850;2023-08-06T13:05:23;23.80;64.60
41437;DHT22;27178;49.460;10.850;2023-08-06T13:07:51;23.90;65.60
41437;DHT22;27178;49.460;10.850;2023-08-06T13:10:20;23.90;64.70
41437;DHT22;27178;49.460;10.850;2023-08-06T13:12:48;23.90;64.20
41437;DHT22;27178;49.460;10.850;2023-08-06T13:15:16;23.90;63.80
41437;DHT22;27178;49.460;10.850;2023-08-06T13:17:49;23.90;63.20
41437;DHT22;27178;49.460;10.850;2023-08-06T13:20:17;23.80;63.50
41437;DHT22;27178;49.460;10.850;2023-08-06T13:22:47;23.80;63.30
41437;DHT22;27178;49.460;10.850;2023-08-06T13:25:18;23.70;63.00
41437;DHT22;27178;49.460;10.850;2023-08-06T13:27:46;23.70;62.90
41437;DHT22;27178;49.460;10.850;2023-08-06T13:30:15;23.60;63.10
41437;DHT22;27178;49.460;10.850;2023-08-06T13:32:45;23.50;62.50
41437;DHT22;27178;49.460;10.850;2023-08-06T13:35:14;23.40;63.50
41437;DHT22;27178;49.460;10.850;2023-08-06T13:37:43;23.30;63.00
41437;DHT22;27178;49.460;10.850;2023-08-06T13:40:12;23.10;63.60
41437;DHT22;27178;49.460;10.850;2023-08-06T13:42:40;23.00;63.70
41437;DHT22;27178;49.460;10.850;2023-08-06T13:45:09;23.00;64.20
41437;DHT22;27178;49.460;10.850;2023-08-06T13:47:38;22.90;64.20
41437;DHT22;27178;49.460;10.850;2023-08-06T13:50:07;22.90;64.50
41437;DHT22;27178;49.460;10.850;2023-08-06T13:52:37;22.80;64.70
41437;DHT22;27178;49.460;10.850;2023-08-06T13:55:06;22.70;65.20
41437;DHT22;27178;49.460;10.850;2023-08-06T13:57:35;22.70;65.20
41437;DHT22;27178;49.460;10.850;2023-08-06T14:00:04;22.60;66.70
41437;DHT22;27178;49.460;10.850;2023-08-06T14:02:32;22.50;66.00
41437;DHT22;27178;49.460;10.850;2023-08-06T14:05:01;22.40;66.00
41437;DHT22;27178;49.460;10.850;2023-08-06T14:07:30;22.20;66.30
41437;DHT22;27178;49.460;10.850;2023-08-06T14:09:59;22.20;66.50
41437;DHT22;27178;49.460;10.850;2023-08-06T14:12:29;22.00;66.50
41437;DHT22;27178;49.460;10.850;2023-08-06T14:14:58;21.90;66.80
41437;DHT22;27178;49.460;10.850;2023-08-06T14:17:27;21.80;67.50
41437;DHT22;27178;49.460;10.850;2023-08-06T14:19:56;21.70;67.60
41437;DHT22;27178;49.460;10.850;2023-08-06T14:22:24;21.60;67.80
41437;DHT22;27178;49.460;10.850;2023-08-06T14:24:52;21.50;67.90
41437;DHT22;27178;49.460;10.850;2023-08-06T14:27:22;21.50;68.00
41437;DHT22;27178;49.460;10.850;2023-08-06T14:29:50;21.40;68.20
41437;DHT22;27178;49.460;10.850;2023-08-06T14:32:18;21.30;68.40
41437;DHT22;27178;49.460;10.850;2023-08-06T14:34:47;21.30;68.60
41437;DHT22;27178;49.460;10.850;2023-08-06T14:37:15;21.20;68.70
41437;DHT22;27178;49.460;10.850;2023-08-06T14:39:44;21.10;68.60
41437;DHT22;27178;49.460;10.850;2023-08-06T14:42:12;21.10;68.90
41437;DHT22;27178;49.460;10.850;2023-08-06T14:44:42;21.10;69.20
41437;DHT22;27178;49.460;10.850;2023-08-06T14:47:11;21.00;69.30
41437;DHT22;27178;49.460;10.850;2023-08-06T14:49:39;21.00;69.30
41437;DHT22;27178;49.460;10.850;2023-08-06T14:52:08;21.00;69.60
41437;DHT22;27178;49.460;10.850;2023-08-06T14:54:36;21.00;70.60
41437;DHT22;27178;49.460;10.850;2023-08-06T14:57:06;21.00;69.80
41437;DHT22;27178;49.460;10.850;2023-08-06T14:59:35;20.90;69.80
41437;DHT22;27178;49.460;10.850;2023-08-06T15:02:04;20.90;69.90
41437;DHT22;27178;49.460;10.850;2023-08-06T15:04:33;20.90;69.70
41437;DHT22;27178;49.460;10.850;2023-08-06T15:07:05;20.90;69.40
41437;DHT22;27178;49.460;10.850;2023-08-06T15:09:33;20.80;69.50
41437;DHT22;27178;49.460;10.850;2023-08-06T15:12:21;20.80;69.40
41437;DHT22;27178;49.460;10.850;2023-08-06T15:14:50;20.80;69.40
41437;DHT22;27178;49.460;10.850;2023-08-06T15:17:21;20.70;69.10
41437;DHT22;27178;49.460;10.850;2023-08-06T15:19:49;20.70;69.20
41437;DHT22;27178;49.460;10.850;2023-08-06T15:22:18;20.70;69.10
41437;DHT22;27178;49.460;10.850;2023-08-06T15:24:47;20.70;69.00
41437;DHT22;27178;49.460;10.850;2023-08-06T15:27:15;20.70;69.10
41437;DHT22;27178;49.460;10.850;2023-08-06T15:29:44;20.70;69.00